Time;durP1;ratioP1;P1;durP2;ratioP2;P2;SDS_P1;SDS_P2;PMS_P1;PMS_P2;Temp;Humidity;BMP_temperature;BMP_pressure;BME280_temperature;BME280_humidity;BME280_pressure;Samples;Min_cycle;Max_cycle;Signal;HPM_P1;HPM_P2
2022/02/21 00:01:03;;;;;;;0.73;0.43;;;8.30;99.90;;;;;;2603088;54;20817;31
2022/02/21 00:03:41;;;;;;;1.27;0.33;;;8.30;99.90;;;;;;2603861;54;20045;31
2022/02/21 00:06:19;;;;;;;0.85;0.35;;;8.30;99.90;;;;;;2603919;54;20113;31
2022/02/21 00:08:54;;;;;;;2.17;0.77;;;8.30;99.90;;;;;;2603752;54;20023;31
2022/02/21 00:11:27;;;;;;;0.70;0.40;;;8.30;99.90;;;;;;2603733;54;20550;31
2022/02/21 00:14:01;;;;;;;1.15;0.38;;;8.30;99.90;;;;;;2603887;54;20855;31
2022/02/21 00:16:35;;;;;;;1.65;0.20;;;8.30;99.90;;;;;;2603968;54;20085;31
2022/02/21 00:19:12;;;;;;;1.13;0.50;;;8.30;99.90;;;;;;2603831;54;20042;31
2022/02/21 00:21:46;;;;;;;1.10;0.40;;;8.30;99.90;;;;;;2602951;54;20145;31
2022/02/21 00:24:20;;;;;;;1.45;0.60;;;8.30;99.90;;;;;;2603911;54;20161;31
2022/02/21 00:26:57;;;;;;;0.60;0.25;;;8.30;99.90;;;;;;2603724;54;20053;31
2022/02/21 00:29:32;;;;;;;1.10;0.50;;;8.30;99.90;;;;;;2603572;54;25092;31
2022/02/21 00:32:09;;;;;;;1.05;0.40;;;8.30;99.90;;;;;;2603650;54;20883;31
2022/02/21 00:34:46;;;;;;;0.90;0.40;;;8.30;99.90;;;;;;2603541;54;20113;31
2022/02/21 00:37:24;;;;;;;0.68;0.28;;;8.30;99.90;;;;;;2603618;54;20034;31
2022/02/21 00:39:58;;;;;;;1.27;0.50;;;8.30;99.90;;;;;;2602920;54;20064;31
2022/02/21 00:42:33;;;;;;;1.38;0.50;;;8.30;99.90;;;;;;2621608;46;21130;31
2022/02/21 00:45:09;;;;;;;2.30;0.35;;;8.30;99.90;;;;;;2603642;54;20941;31
2022/02/21 00:47:44;;;;;;;1.20;0.57;;;8.20;99.90;;;;;;2603659;54;20030;31
2022/02/21 00:50:21;;;;;;;1.90;0.63;;;8.20;99.90;;;;;;2603764;54;20886;31
2022/02/21 00:52:55;;;;;;;0.85;0.43;;;8.20;99.90;;;;;;2622211;46;20037;31
2022/02/21 00:55:33;;;;;;;0.80;0.32;;;8.10;99.90;;;;;;2603515;54;20073;31
2022/02/21 00:58:08;;;;;;;1.60;0.50;;;8.10;99.90;;;;;;2603859;54;20103;31
2022/02/21 01:00:43;;;;;;;0.77;0.40;;;8.10;99.90;;;;;;2603947;54;20035;31
2022/02/21 01:03:18;;;;;;;1.40;1.08;;;8.10;99.90;;;;;;2603515;54;20844;31
2022/02/21 01:05:55;;;;;;;1.17;0.60;;;8.10;99.90;;;;;;2602722;54;20038;31
2022/02/21 01:08:30;;;;;;;2.03;0.60;;;8.00;99.90;;;;;;2603447;54;20038;31
2022/02/21 01:11:04;;;;;;;1.52;0.60;;;8.00;99.90;;;;;;2603545;54;20938;31
2022/02/21 01:13:39;;;;;;;2.13;0.40;;;8.00;99.90;;;;;;2603751;54;20038;31
2022/02/21 01:16:14;;;;;;;0.60;0.35;;;8.00;99.90;;;;;;2603635;54;20136;31
2022/02/21 01:18:49;;;;;;;1.05;0.40;;;8.00;99.90;;;;;;2702112;39;20501;31
2022/02/21 01:21:25;;;;;;;0.67;0.30;;;7.90;99.90;;;;;;2603709;54;21912;31
2022/02/21 01:23:59;;;;;;;1.10;0.30;;;8.00;99.90;;;;;;2603410;54;20119;31
2022/02/21 01:26:35;;;;;;;2.30;1.00;;;8.00;99.90;;;;;;2622215;46;20165;31
2022/02/21 01:29:10;;;;;;;2.15;0.40;;;8.00;99.90;;;;;;2603901;54;20037;31
2022/02/21 01:31:45;;;;;;;0.90;0.30;;;8.10;99.90;;;;;;2603705;54;20030;31
2022/02/21 01:34:20;;;;;;;0.88;0.30;;;8.10;99.90;;;;;;2603619;54;20030;31
2022/02/21 01:36:55;;;;;;;1.48;0.30;;;8.10;99.90;;;;;;2702276;39;21023;31
2022/02/21 01:39:30;;;;;;;1.40;0.40;;;8.10;99.90;;;;;;2603790;54;20105;31
2022/02/21 01:42:03;;;;;;;1.38;0.40;;;8.10;99.90;;;;;;2621825;46;20065;31
2022/02/21 01:44:39;;;;;;;1.67;0.40;;;8.10;99.90;;;;;;2603453;54;20026;31
2022/02/21 01:47:14;;;;;;;0.70;0.25;;;8.10;99.90;;;;;;2603701;54;20027;31
2022/02/21 01:49:48;;;;;;;0.88;0.20;;;8.10;99.90;;;;;;2603346;54;20026;31
2022/02/21 01:52:25;;;;;;;0.50;0.20;;;8.10;99.90;;;;;;2603434;54;20854;31
2022/02/21 01:54:59;;;;;;;3.30;0.30;;;8.00;99.90;;;;;;2603373;54;20022;31
2022/02/21 01:57:34;;;;;;;1.00;0.50;;;8.00;99.90;;;;;;2603488;54;20061;31
2022/02/21 02:00:10;;;;;;;0.68;0.20;;;8.00;99.90;;;;;;2603347;54;20057;31
2022/02/21 02:02:46;;;;;;;2.33;0.40;;;8.00;99.90;;;;;;2701952;39;21090;31
2022/02/21 02:05:22;;;;;;;1.30;0.30;;;8.00;99.90;;;;;;2603459;54;20764;31
2022/02/21 02:07:59;;;;;;;1.30;0.30;;;8.00;99.90;;;;;;2603557;54;20810;31
2022/02/21 02:10:33;;;;;;;0.63;0.30;;;8.00;99.90;;;;;;2603192;54;20051;31
2022/02/21 02:13:08;;;;;;;0.98;0.40;;;8.10;99.90;;;;;;2603460;54;20022;31
2022/02/21 02:15:43;;;;;;;1.30;0.23;;;8.10;99.90;;;;;;2603236;54;20859;31
2022/02/21 02:18:17;;;;;;;0.85;0.38;;;8.10;99.90;;;;;;2621754;46;20077;31
2022/02/21 02:20:52;;;;;;;1.20;0.30;;;8.10;99.90;;;;;;2603157;54;20033;31
2022/02/21 02:23:29;;;;;;;1.03;0.20;;;8.10;99.90;;;;;;2603405;54;20674;31
2022/02/21 02:26:03;;;;;;;0.57;0.32;;;8.10;99.90;;;;;;2622043;46;21009;31
2022/02/21 02:28:38;;;;;;;2.97;0.40;;;8.10;99.90;;;;;;2603567;54;20903;31
2022/02/21 02:31:12;;;;;;;0.73;0.20;;;8.10;99.90;;;;;;2602570;54;20054;31
2022/02/21 02:33:46;;;;;;;1.55;0.40;;;8.10;99.90;;;;;;2603415;54;20889;31
2022/02/21 02:36:21;;;;;;;1.52;0.30;;;8.20;99.90;;;;;;2619964;46;20054;31
2022/02/21 02:38:58;;;;;;;0.60;0.20;;;8.10;99.90;;;;;;2603218;54;20851;31
2022/02/21 02:41:33;;;;;;;1.50;0.30;;;8.20;99.90;;;;;;2603268;54;20037;31
2022/02/21 02:44:08;;;;;;;0.55;0.10;;;8.20;99.90;;;;;;2602531;54;20916;31
2022/02/21 02:46:42;;;;;;;0.63;0.20;;;8.20;99.90;;;;;;2603448;54;20948;31
2022/02/21 02:49:16;;;;;;;1.33;0.37;;;8.20;99.90;;;;;;2603154;54;20030;31
2022/02/21 02:51:50;;;;;;;0.50;0.30;;;8.20;99.90;;;;;;2603028;54;20895;31
2022/02/21 02:54:27;;;;;;;0.35;0.20;;;8.30;99.90;;;;;;2603263;54;20082;31
2022/02/21 02:57:02;;;;;;;1.10;0.30;;;8.30;99.90;;;;;;2603359;54;20029;31
2022/02/21 02:59:36;;;;;;;1.60;0.40;;;8.30;99.90;;;;;;2603034;54;20034;31
2022/02/21 03:02:11;;;;;;;1.27;0.25;;;8.30;99.90;;;;;;2603102;54;20005;31
2022/02/21 03:04:45;;;;;;;0.82;0.20;;;8.30;99.90;;;;;;2603316;54;20144;31
2022/02/21 03:07:20;;;;;;;1.02;0.20;;;8.30;99.90;;;;;;2602868;54;20097;31
2022/02/21 03:09:57;;;;;;;0.95;0.20;;;8.30;99.90;;;;;;2603135;54;20069;31
2022/02/21 03:12:29;;;;;;;0.50;0.32;;;8.30;99.90;;;;;;2701873;39;21010;31
2022/02/21 03:15:03;;;;;;;0.93;0.20;;;8.30;99.90;;;;;;2621779;47;20036;31
2022/02/21 03:17:37;;;;;;;5.63;0.55;;;8.30;99.90;;;;;;2603096;54;20038;31
2022/02/21 03:20:13;;;;;;;2.67;0.32;;;8.30;99.90;;;;;;2620022;47;20030;31
2022/02/21 03:22:48;;;;;;;1.40;0.40;;;8.30;99.90;;;;;;2603202;54;20037;31
2022/02/21 03:25:26;;;;;;;2.42;0.40;;;8.30;99.90;;;;;;2621529;47;20023;31
2022/02/21 03:28:00;;;;;;;2.20;0.52;;;8.30;99.90;;;;;;2602151;54;20031;31
2022/02/21 03:30:35;;;;;;;1.38;0.43;;;8.20;99.90;;;;;;2603602;54;20052;31
2022/02/21 03:33:09;;;;;;;1.52;0.60;;;8.20;99.90;;;;;;2604072;54;20120;31
2022/02/21 03:35:43;;;;;;;1.13;0.40;;;8.30;99.90;;;;;;2604037;54;20030;31
2022/02/21 03:38:17;;;;;;;1.15;0.47;;;8.20;99.90;;;;;;2603871;54;20046;31
2022/02/21 03:40:55;;;;;;;1.30;0.50;;;8.30;99.90;;;;;;2603846;54;20026;31
2022/02/21 03:43:29;;;;;;;2.05;0.60;;;8.30;99.90;;;;;;2603828;54;20058;31
2022/02/21 03:46:03;;;;;;;5.00;0.70;;;8.30;99.90;;;;;;2603784;54;20050;31
2022/02/21 03:48:37;;;;;;;1.55;0.50;;;8.20;99.90;;;;;;2603820;54;20057;31
2022/02/21 03:51:11;;;;;;;1.90;0.60;;;8.30;99.90;;;;;;2604092;54;20046;31
2022/02/21 03:53:45;;;;;;;2.10;0.70;;;8.20;99.90;;;;;;2603784;54;20049;31
2022/02/21 03:56:22;;;;;;;1.20;0.60;;;8.30;99.90;;;;;;2622094;46;20844;31
2022/02/21 03:58:57;;;;;;;2.60;0.57;;;8.30;99.90;;;;;;2603769;54;20036;31
2022/02/21 04:01:31;;;;;;;0.70;0.30;;;8.30;99.90;;;;;;2603763;54;20030;31
2022/02/21 04:04:05;;;;;;;2.15;0.50;;;8.40;99.90;;;;;;2603775;54;20023;31
2022/02/21 04:06:40;;;;;;;1.02;0.50;;;8.40;99.90;;;;;;2603902;54;20046;31
2022/02/21 04:09:15;;;;;;;1.20;0.40;;;8.40;99.90;;;;;;2622180;46;20026;31
2022/02/21 04:11:49;;;;;;;3.53;0.93;;;8.40;99.90;;;;;;2792209;31;21179;31
2022/02/21 04:14:23;;;;;;;2.05;0.60;;;8.50;99.90;;;;;;2622047;46;20852;31
2022/02/21 04:16:55;;;;;;;4.72;0.57;;;8.60;99.90;;;;;;2702422;39;21073;31
2022/02/21 04:19:29;;;;;;;1.55;0.60;;;8.50;99.90;;;;;;2604014;54;20089;31
2022/02/21 04:22:03;;;;;;;1.05;0.60;;;8.50;99.90;;;;;;2602908;54;20031;31
2022/02/21 04:24:37;;;;;;;3.53;0.50;;;8.50;99.90;;;;;;2603624;54;20727;31
2022/02/21 04:27:14;;;;;;;3.60;0.70;;;8.60;99.90;;;;;;2603915;54;20836;31
2022/02/21 04:29:49;;;;;;;3.30;0.77;;;8.60;99.90;;;;;;2603975;54;20030;31
2022/02/21 04:32:23;;;;;;;2.13;0.40;;;8.60;99.90;;;;;;2603672;54;20036;31
2022/02/21 04:34:58;;;;;;;1.80;0.43;;;8.60;99.90;;;;;;2603698;54;20801;31
2022/02/21 04:37:32;;;;;;;0.85;0.30;;;8.60;99.90;;;;;;2622389;46;20026;31
2022/02/21 04:40:08;;;;;;;3.33;0.43;;;8.60;99.90;;;;;;2622168;46;20057;31
2022/02/21 04:42:47;;;;;;;1.40;0.30;;;8.60;99.90;;;;;;2621634;46;20027;31
2022/02/21 04:45:22;;;;;;;2.05;0.65;;;8.60;99.90;;;;;;2603694;54;20370;31
2022/02/21 04:47:56;;;;;;;0.70;0.30;;;8.60;99.90;;;;;;2603530;54;20105;31
2022/02/21 04:50:31;;;;;;;1.83;0.70;;;8.60;99.90;;;;;;2603680;54;20030;31
2022/02/21 04:53:04;;;;;;;2.45;0.45;;;8.70;99.90;;;;;;2603428;54;20916;31
2022/02/21 04:55:38;;;;;;;1.67;0.40;;;8.70;99.90;;;;;;2603652;54;21013;31
2022/02/21 04:58:15;;;;;;;1.88;0.47;;;8.70;99.90;;;;;;2621832;46;20076;31
2022/02/21 05:00:50;;;;;;;1.17;0.63;;;8.70;99.90;;;;;;2603626;54;20030;31
2022/02/21 05:03:24;;;;;;;1.67;0.50;;;8.70;99.90;;;;;;2603525;54;20037;31
2022/02/21 05:05:58;;;;;;;1.30;0.30;;;8.70;99.90;;;;;;2603748;54;20042;31
2022/02/21 05:08:33;;;;;;;2.40;0.57;;;8.80;99.90;;;;;;2622593;46;20975;31
2022/02/21 05:11:07;;;;;;;2.20;0.50;;;8.80;99.90;;;;;;2603758;54;20180;31
2022/02/21 05:13:44;;;;;;;0.82;0.40;;;8.80;99.90;;;;;;2603760;54;20077;31
2022/02/21 05:16:18;;;;;;;2.28;0.50;;;8.80;99.90;;;;;;2603723;54;20026;31
2022/02/21 05:18:52;;;;;;;1.85;0.50;;;8.80;99.90;;;;;;2603554;54;20090;31
2022/02/21 05:21:26;;;;;;;1.58;0.40;;;8.90;99.90;;;;;;2603725;54;20064;31
2022/02/21 05:24:01;;;;;;;1.25;0.38;;;8.90;99.90;;;;;;2603338;54;20026;31
2022/02/21 05:26:35;;;;;;;1.80;0.50;;;8.90;99.90;;;;;;2603402;54;20058;31
2022/02/21 05:29:12;;;;;;;1.85;0.40;;;8.90;99.90;;;;;;2603766;54;20032;31
2022/02/21 05:31:47;;;;;;;0.80;0.40;;;9.00;99.90;;;;;;2621676;46;20754;31
2022/02/21 05:34:22;;;;;;;1.60;0.40;;;9.00;99.90;;;;;;2603472;54;20132;31
2022/02/21 05:36:56;;;;;;;2.00;0.52;;;9.00;99.90;;;;;;2603287;54;20073;31
2022/02/21 05:39:30;;;;;;;1.33;0.30;;;9.00;99.90;;;;;;2603673;54;19973;31
2022/02/21 05:42:05;;;;;;;0.80;0.40;;;9.10;99.90;;;;;;2603561;54;20038;31
2022/02/21 05:44:42;;;;;;;1.63;0.60;;;9.20;99.90;;;;;;2622003;46;20046;31
2022/02/21 05:47:16;;;;;;;2.08;0.60;;;9.20;99.90;;;;;;2603511;54;20865;31
2022/02/21 05:49:51;;;;;;;3.00;0.50;;;9.20;99.90;;;;;;2603399;54;20110;31
2022/02/21 05:52:26;;;;;;;2.20;0.50;;;9.20;99.90;;;;;;2603554;54;20033;31
2022/02/21 05:55:00;;;;;;;0.70;0.25;;;9.20;99.90;;;;;;2603682;54;20042;31
2022/02/21 05:57:35;;;;;;;0.80;0.35;;;9.20;99.90;;;;;;2622028;46;19942;31
2022/02/21 06:00:15;;;;;;;3.00;0.50;;;9.30;99.90;;;;;;2603543;54;20100;31
2022/02/21 06:02:49;;;;;;;2.20;0.70;;;9.30;99.90;;;;;;2603566;54;20055;31
2022/02/21 06:05:23;;;;;;;2.17;0.60;;;9.30;99.90;;;;;;2603475;54;20066;31
2022/02/21 06:07:57;;;;;;;0.80;0.38;;;9.30;99.90;;;;;;2603418;54;19934;31
2022/02/21 06:10:31;;;;;;;1.90;0.70;;;9.30;99.90;;;;;;2702053;39;21081;31
2022/02/21 06:13:04;;;;;;;2.30;0.70;;;9.30;99.90;;;;;;2621744;46;20026;31
2022/02/21 06:15:41;;;;;;;2.50;0.60;;;9.30;99.90;;;;;;2603399;54;20054;31
2022/02/21 06:18:16;;;;;;;2.60;0.80;;;9.30;99.90;;;;;;2603583;54;20026;31
2022/02/21 06:45:23;;;;;;;1.70;0.52;;;8.60;99.90;;;;;;2603066;54;20799;31
2022/02/21 06:48:09;;;;;;;1.83;0.57;;;8.50;99.90;;;;;;2603207;54;20034;31
2022/02/21 07:17:45;;;;;;;2.38;0.60;;;8.40;99.90;;;;;;2603228;54;20263;31
2022/02/21 07:20:25;;;;;;;1.63;0.60;;;8.40;99.90;;;;;;2603718;46;20452;31
2022/02/21 07:23:06;;;;;;;2.10;0.80;;;8.40;99.90;;;;;;2622782;46;20026;31
2022/02/21 07:25:44;;;;;;;2.33;0.88;;;8.40;99.90;;;;;;2603802;54;20902;31
2022/02/21 07:31:38;;;;;;;1.77;0.90;;;8.40;99.90;;;;;;2603711;54;20106;31
2022/02/21 07:34:14;;;;;;;2.65;0.57;;;8.30;99.90;;;;;;2604137;54;20956;31
2022/02/21 07:36:49;;;;;;;1.65;0.40;;;8.30;99.90;;;;;;2603862;54;20027;31
2022/02/21 07:39:23;;;;;;;4.03;0.80;;;8.20;99.90;;;;;;2604253;54;20038;31
2022/02/21 07:41:58;;;;;;;2.45;0.60;;;8.20;99.90;;;;;;2603809;54;20632;31
2022/02/21 07:44:32;;;;;;;2.47;0.63;;;8.20;99.90;;;;;;2603802;54;20794;31
2022/02/21 07:47:09;;;;;;;1.30;0.70;;;8.10;99.90;;;;;;2620359;46;20049;31
2022/02/21 07:49:47;;;;;;;3.10;0.90;;;8.10;99.90;;;;;;2603147;54;20034;31
2022/02/21 07:52:22;;;;;;;2.95;1.02;;;8.10;99.90;;;;;;2618724;46;20902;31
2022/02/21 07:54:57;;;;;;;2.50;1.05;;;8.00;99.90;;;;;;2604053;54;20897;31
2022/02/21 07:57:32;;;;;;;2.08;0.68;;;8.10;99.90;;;;;;2702375;39;20493;31
2022/02/21 08:00:07;;;;;;;1.27;0.30;;;8.00;99.90;;;;;;2622389;46;20863;31
2022/02/21 08:02:45;;;;;;;1.25;0.40;;;7.90;99.90;;;;;;2602914;54;20037;31
2022/02/21 08:05:23;;;;;;;1.20;0.20;;;7.80;99.90;;;;;;2603177;54;20041;31
2022/02/21 08:08:00;;;;;;;1.65;0.40;;;7.80;99.90;;;;;;2603805;54;20837;31
2022/02/21 08:10:36;;;;;;;2.15;0.63;;;7.80;99.90;;;;;;2602881;54;20889;31
2022/02/21 08:13:11;;;;;;;2.53;0.75;;;7.70;99.90;;;;;;2603124;54;20065;31
2022/02/21 08:15:46;;;;;;;0.65;0.20;;;7.70;99.90;;;;;;2603554;54;20031;31
2022/02/21 08:18:21;;;;;;;2.93;0.40;;;7.70;99.90;;;;;;2621899;47;20031;31
2022/02/21 08:20:58;;;;;;;2.10;0.70;;;7.60;99.90;;;;;;2622470;46;20266;31
2022/02/21 08:26:07;;;;;;;1.85;0.40;;;7.60;99.90;;;;;;2603802;54;20814;31
2022/02/21 08:28:42;;;;;;;1.83;0.65;;;7.50;99.90;;;;;;2622373;46;20034;31
2022/02/21 08:31:18;;;;;;;;;;;7.40;99.90;;;;;;2604064;54;20034;31
2022/02/21 08:33:51;;;;;;;1.20;0.73;;;7.40;99.90;;;;;;2603723;54;20116;31
2022/02/21 08:36:28;;;;;;;5.20;0.88;;;7.30;99.90;;;;;;2603994;54;20948;31
2022/02/21 08:39:03;;;;;;;2.60;0.70;;;7.30;99.90;;;;;;2603617;54;20921;31
2022/02/21 08:41:38;;;;;;;3.93;1.10;;;7.30;99.90;;;;;;2603800;54;20065;31
2022/02/21 08:44:13;;;;;;;2.22;0.90;;;7.20;99.90;;;;;;2603455;54;20266;31
2022/02/21 08:46:48;;;;;;;7.45;3.92;;;7.20;99.90;;;;;;2622035;46;20026;31
2022/02/21 08:49:23;;;;;;;6.78;5.05;;;7.20;99.90;;;;;;2603652;54;20877;31
2022/02/21 08:52:00;;;;;;;8.75;6.47;;;7.30;99.90;;;;;;2603545;54;20964;31
2022/02/21 08:54:35;;;;;;;13.07;7.82;;;7.30;99.90;;;;;;2602748;54;20022;31
2022/02/21 08:57:10;;;;;;;3.15;1.98;;;7.30;99.90;;;;;;2603656;54;20027;31
2022/02/21 08:59:45;;;;;;;2.03;0.63;;;7.40;99.90;;;;;;2603464;54;20037;31
2022/02/21 09:02:20;;;;;;;2.22;0.70;;;7.40;99.90;;;;;;2603773;54;20874;31
2022/02/21 09:05:16;;;;;;;2.60;1.30;;;7.50;99.90;;;;;;2603548;54;20031;31
2022/02/21 09:07:54;;;;;;;4.43;1.10;;;7.60;99.90;;;;;;2603485;54;21028;31
2022/02/21 09:10:30;;;;;;;4.45;0.90;;;7.60;99.90;;;;;;2603601;54;20257;31
2022/02/21 09:13:03;;;;;;;2.53;1.13;;;7.60;99.90;;;;;;2702169;39;20992;31
2022/02/21 09:15:38;;;;;;;2.20;0.73;;;7.70;99.90;;;;;;2622028;46;20026;31
2022/02/21 09:18:13;;;;;;;3.30;1.00;;;7.60;99.90;;;;;;2602786;54;20030;31
2022/02/21 09:20:47;;;;;;;5.03;0.95;;;7.60;99.90;;;;;;2603891;54;20585;31
2022/02/21 09:23:25;;;;;;;2.92;0.77;;;7.60;99.90;;;;;;2603170;54;20031;31
2022/02/21 09:25:59;;;;;;;2.75;1.25;;;7.70;99.90;;;;;;2603429;54;20917;31
2022/02/21 09:28:34;;;;;;;2.63;1.00;;;7.60;99.90;;;;;;2603219;54;20855;31
2022/02/21 09:31:11;;;;;;;1.90;1.10;;;7.60;99.90;;;;;;2603734;54;20042;31
2022/02/21 09:33:46;;;;;;;2.42;1.10;;;7.60;99.90;;;;;;2603612;54;20242;31
2022/02/21 09:36:21;;;;;;;2.33;0.80;;;7.60;99.90;;;;;;2603254;54;20001;31
2022/02/21 09:38:59;;;;;;;1.88;0.60;;;7.60;99.90;;;;;;2621545;46;20875;31
2022/02/21 09:41:34;;;;;;;1.67;0.60;;;7.60;99.90;;;;;;2603401;54;20030;31
2022/02/21 09:44:09;;;;;;;3.60;0.80;;;7.60;99.90;;;;;;2602764;54;20034;31
2022/02/21 09:46:44;;;;;;;1.55;0.60;;;7.60;99.90;;;;;;2602627;54;20746;31
2022/02/21 09:49:19;;;;;;;6.03;0.75;;;7.60;99.90;;;;;;2603425;54;20113;31
2022/02/21 09:51:54;;;;;;;3.38;0.90;;;7.60;99.90;;;;;;2603407;54;20038;31
2022/02/21 09:54:31;;;;;;;2.65;0.75;;;7.50;99.90;;;;;;2603370;54;20038;31
2022/02/21 09:57:07;;;;;;;4.22;0.73;;;7.40;99.90;;;;;;2602894;54;20034;31
2022/02/21 09:59:42;;;;;;;3.38;0.50;;;7.30;99.90;;;;;;2602310;54;20018;31
2022/02/21 10:02:21;;;;;;;2.87;0.80;;;7.20;99.90;;;;;;2602506;54;20919;31
2022/02/21 10:05:11;;;;;;;6.73;0.70;;;7.10;99.90;;;;;;2603354;54;20038;31
2022/02/21 10:10:20;;;;;;;3.10;0.88;;;6.70;99.90;;;;;;2603322;54;20038;31
2022/02/21 10:12:57;;;;;;;3.47;0.60;;;6.60;99.90;;;;;;2602447;54;20821;31
2022/02/21 10:15:34;;;;;;;5.15;0.70;;;6.50;99.90;;;;;;2603525;54;20814;31
2022/02/21 10:18:12;;;;;;;;;;;6.40;99.90;;;;;;2603604;54;20042;31
2022/02/21 10:21:01;;;;;;;4.50;0.77;;;6.30;99.90;;;;;;2603477;54;19934;31
2022/02/21 10:23:37;;;;;;;1.75;0.52;;;6.20;99.90;;;;;;2603194;54;20846;31
2022/02/21 10:26:14;;;;;;;3.15;0.60;;;6.20;99.90;;;;;;2621645;46;20031;31
2022/02/21 10:28:51;;;;;;;3.47;0.80;;;6.30;99.90;;;;;;2603271;54;20026;31
2022/02/21 10:31:26;;;;;;;1.83;0.30;;;6.50;99.90;;;;;;2603186;54;20147;31
2022/02/21 10:34:02;;;;;;;2.10;0.45;;;6.50;99.90;;;;;;2602487;54;20955;31
2022/02/21 10:36:38;;;;;;;3.42;0.82;;;6.70;99.90;;;;;;2603236;54;20037;31
2022/02/21 10:39:19;;;;;;;1.90;0.43;;;6.80;99.90;;;;;;2602890;54;20113;31
2022/02/21 10:41:57;;;;;;;2.85;0.65;;;6.90;99.90;;;;;;2603305;54;20033;31
2022/02/21 10:44:35;;;;;;;2.35;0.90;;;6.90;99.90;;;;;;2621740;46;20027;31
2022/02/21 10:47:12;;;;;;;2.27;0.67;;;6.90;99.90;;;;;;2603083;54;20109;31
2022/02/21 10:49:56;;;;;;;2.95;0.43;;;7.00;99.90;;;;;;2603295;54;21169;31
2022/02/21 10:52:31;;;;;;;2.13;0.50;;;6.90;99.90;;;;;;2603247;54;20038;31
2022/02/21 10:55:09;;;;;;;2.25;1.00;;;6.90;99.90;;;;;;2621613;47;20037;31
2022/02/21 10:57:47;;;;;;;2.90;0.80;;;6.80;99.90;;;;;;2603492;54;20026;31
2022/02/21 11:00:22;;;;;;;2.35;0.68;;;6.80;99.90;;;;;;2603258;54;20133;31
2022/02/21 11:02:57;;;;;;;3.77;0.53;;;6.80;99.90;;;;;;2603005;54;20840;31
2022/02/21 11:05:34;;;;;;;2.20;0.80;;;6.80;99.90;;;;;;2602998;54;20389;31
2022/02/21 11:08:09;;;;;;;2.53;0.55;;;6.70;99.90;;;;;;2603116;54;20814;31
2022/02/21 11:10:44;;;;;;;4.88;0.90;;;6.60;99.90;;;;;;2603310;54;20033;31
2022/02/21 11:13:22;;;;;;;2.58;0.40;;;6.60;99.90;;;;;;2603161;54;20030;31
2022/02/21 11:15:56;;;;;;;3.40;0.65;;;6.60;99.90;;;;;;2603042;54;20670;31
2022/02/21 11:18:36;;;;;;;2.42;0.60;;;6.60;99.90;;;;;;2603250;54;20868;31
2022/02/21 11:21:11;;;;;;;5.63;1.02;;;6.70;99.90;;;;;;2603142;54;20052;31
2022/02/21 11:23:48;;;;;;;2.90;0.70;;;6.80;99.90;;;;;;2603064;54;19958;31
2022/02/21 11:26:22;;;;;;;4.32;1.20;;;6.90;99.90;;;;;;2603375;39;20909;31
2022/02/21 11:29:02;;;;;;;4.82;0.85;;;6.90;99.90;;;;;;2603020;54;20042;31
2022/02/21 11:31:37;;;;;;;5.43;1.23;;;7.00;99.90;;;;;;2603237;54;20027;31
2022/02/21 11:34:12;;;;;;;;;;;7.10;99.90;;;;;;2603362;54;20859;31
2022/02/21 11:36:57;;;;;;;3.65;1.08;;;7.20;99.90;;;;;;2602760;54;20881;31
2022/02/21 11:39:33;;;;;;;4.47;0.77;;;7.30;99.90;;;;;;2701595;39;21016;31
2022/02/21 11:42:21;;;;;;;5.15;1.00;;;7.40;99.90;;;;;;2603284;54;20884;31
2022/02/21 11:44:55;;;;;;;4.20;0.80;;;7.50;99.90;;;;;;2621816;47;20026;31
2022/02/21 11:47:38;;;;;;;4.45;0.77;;;7.60;99.90;;;;;;2603020;54;20033;31
2022/02/21 11:50:24;;;;;;;5.03;0.70;;;7.60;99.90;;;;;;2602859;54;20160;31
2022/02/21 11:53:00;;;;;;;3.05;0.90;;;7.80;99.90;;;;;;2603840;54;20030;31
2022/02/21 11:55:49;;;;;;;3.40;0.70;;;7.90;99.90;;;;;;2622154;46;20026;31
2022/02/21 11:58:43;;;;;;;3.28;0.95;;;7.90;99.90;;;;;;2603813;54;20804;31
2022/02/21 12:01:20;;;;;;;4.10;1.10;;;8.00;99.90;;;;;;2603957;54;20030;31
2022/02/21 12:04:22;;;;;;;2.75;0.55;;;7.90;99.90;;;;;;2603813;54;19993;31
2022/02/21 12:06:59;;;;;;;3.20;0.63;;;7.90;99.90;;;;;;2603848;54;20053;31
2022/02/21 12:09:34;;;;;;;3.28;0.50;;;8.00;99.90;;;;;;2602947;54;20049;31
2022/02/21 12:12:24;;;;;;;2.27;0.80;;;8.00;99.90;;;;;;2602966;54;20896;31
2022/02/21 12:15:14;;;;;;;6.10;0.82;;;8.10;99.90;;;;;;2603832;54;20089;31
2022/02/21 12:17:51;;;;;;;4.05;0.80;;;8.10;99.90;;;;;;2603856;54;20785;31
2022/02/21 12:20:43;;;;;;;2.25;0.73;;;8.20;99.90;;;;;;2603699;54;20088;31
2022/02/21 12:23:22;;;;;;;3.30;0.60;;;8.20;99.90;;;;;;2603370;54;19949;31
2022/02/21 12:26:17;;;;;;;2.30;0.60;;;8.20;99.90;;;;;;2622488;46;20826;31
2022/02/21 12:29:13;;;;;;;1.70;0.50;;;8.20;99.90;;;;;;2622242;46;20037;31
2022/02/21 12:31:49;;;;;;;6.25;0.80;;;8.20;99.90;;;;;;2604042;54;20121;31
2022/02/21 12:34:25;;;;;;;2.08;0.50;;;8.30;99.90;;;;;;2622700;46;20026;31
2022/02/21 12:37:03;;;;;;;3.58;0.68;;;8.30;99.90;;;;;;2604081;54;20861;31
2022/02/21 12:39:39;;;;;;;4.20;0.63;;;8.40;99.90;;;;;;2603849;54;20034;31
2022/02/21 12:42:16;;;;;;;3.55;0.70;;;8.40;99.90;;;;;;2603728;54;19985;31
2022/02/21 12:44:52;;;;;;;4.63;0.70;;;8.40;99.90;;;;;;2602888;54;20497;31
2022/02/21 12:47:26;;;;;;;;;;;8.40;99.90;;;;;;2603899;54;19958;31
2022/02/21 12:50:11;;;;;;;2.88;0.60;;;8.40;99.90;;;;;;2622438;46;20775;31
2022/02/21 12:52:51;;;;;;;3.85;0.65;;;8.20;99.90;;;;;;2602805;54;20833;31
2022/02/21 12:55:26;;;;;;;4.53;0.80;;;8.00;99.90;;;;;;2603708;54;20037;31
2022/02/21 12:58:03;;;;;;;3.47;0.68;;;7.80;99.90;;;;;;2603339;54;20022;31
2022/02/21 13:00:38;;;;;;;4.30;0.80;;;7.70;99.90;;;;;;2603641;54;20776;31
2022/02/21 13:03:24;;;;;;;8.98;1.98;;;7.70;99.90;;;;;;2603484;54;20823;31
2022/02/21 13:06:02;;;;;;;8.25;1.70;;;7.70;99.90;;;;;;2603808;54;20911;31
2022/02/21 13:08:40;;;;;;;3.25;0.90;;;7.70;99.90;;;;;;2603489;54;20033;31
2022/02/21 13:11:23;;;;;;;2.75;0.80;;;7.70;99.90;;;;;;2603543;54;20026;31
2022/02/21 13:14:22;;;;;;;2.33;0.90;;;7.60;99.90;;;;;;2622400;46;20038;31
2022/02/21 13:16:57;;;;;;;3.70;0.98;;;7.60;99.90;;;;;;2603566;54;20077;31
2022/02/21 13:19:32;;;;;;;3.35;1.00;;;7.70;99.90;;;;;;2602707;54;20030;31
2022/02/21 13:22:08;;;;;;;3.80;0.70;;;7.70;99.90;;;;;;2603564;54;20029;31
2022/02/21 13:24:46;;;;;;;4.57;1.13;;;7.80;99.90;;;;;;2622053;46;20258;31
2022/02/21 13:27:24;;;;;;;2.80;0.80;;;7.80;99.90;;;;;;2602676;54;20945;31
2022/02/21 13:30:00;;;;;;;1.55;0.70;;;7.90;99.90;;;;;;2603318;54;20935;31
2022/02/21 13:32:35;;;;;;;1.20;0.40;;;7.90;99.90;;;;;;2603423;54;20038;31
2022/02/21 13:35:12;;;;;;;4.50;0.80;;;7.90;99.90;;;;;;2602721;54;20822;31
2022/02/21 13:37:48;;;;;;;3.77;0.90;;;7.90;99.90;;;;;;2602910;54;20022;31
2022/02/21 13:40:27;;;;;;;3.15;0.80;;;7.80;99.90;;;;;;2616964;46;20836;31
2022/02/21 13:43:02;;;;;;;3.75;0.50;;;7.80;99.90;;;;;;2603608;54;20807;31
2022/02/21 13:45:38;;;;;;;1.55;0.40;;;7.80;99.90;;;;;;2603681;54;20184;31
2022/02/21 13:48:14;;;;;;;4.80;0.70;;;8.00;99.90;;;;;;2603519;54;20033;31
2022/02/21 13:50:50;;;;;;;1.87;0.70;;;8.00;99.90;;;;;;2602734;54;20895;31
2022/02/21 13:53:36;;;;;;;2.10;0.50;;;8.00;99.90;;;;;;2602695;54;20057;31
2022/02/21 13:56:16;;;;;;;2.05;0.60;;;7.90;99.90;;;;;;2622185;46;20097;31
2022/02/21 13:59:06;;;;;;;3.65;0.80;;;7.90;99.90;;;;;;2603412;54;20022;31
2022/02/21 14:01:52;;;;;;;2.25;0.80;;;7.80;99.90;;;;;;2603091;54;20034;31
2022/02/21 14:04:27;;;;;;;4.18;0.43;;;7.70;99.90;;;;;;2603388;54;20622;31
2022/02/21 14:07:10;;;;;;;3.95;0.90;;;7.60;99.90;;;;;;2619694;46;20895;31
2022/02/21 14:13:13;;;;;;;2.08;0.60;;;7.50;99.90;;;;;;2602836;54;20042;31
2022/02/21 14:25:20;;;;;;;4.57;0.85;;;7.40;99.90;;;;;;2603251;54;20053;31
2022/02/21 14:28:01;;;;;;;2.95;1.05;;;7.40;99.90;;;;;;2701771;39;20481;31
2022/02/21 14:52:11;;;;;;;5.00;0.80;;;7.60;99.90;;;;;;2603255;54;20074;31
2022/02/21 14:59:09;;;;;;;2.80;0.90;;;7.60;99.90;;;;;;2602926;54;20029;31
2022/02/21 15:02:20;;;;;;;3.05;0.75;;;7.60;99.90;;;;;;2603432;54;20100;31
2022/02/21 15:14:59;;;;;;;6.07;2.30;;;7.40;99.90;;;;;;2603285;54;20057;31
2022/02/21 15:41:50;;;;;;;6.75;2.78;;;7.00;99.90;;;;;;2603208;54;20897;31
2022/02/21 15:51:07;;;;;;;6.47;2.38;;;6.90;99.90;;;;;;2603747;54;20022;31
2022/02/21 15:56:45;;;;;;;5.28;2.35;;;6.80;99.90;;;;;;2603845;54;20175;31
2022/02/21 15:59:35;;;;;;;5.57;2.40;;;6.80;99.90;;;;;;2603968;54;20027;31
2022/02/21 16:05:25;;;;;;;9.20;2.50;;;6.80;99.90;;;;;;2603176;54;20883;31
2022/02/21 16:08:26;;;;;;;7.70;2.10;;;6.70;99.90;;;;;;2621644;46;20023;31
2022/02/21 16:17:50;;;;;;;7.53;2.55;;;6.60;99.90;;;;;;2603710;54;20942;31
2022/02/21 16:20:28;;;;;;;6.45;1.73;;;6.50;99.90;;;;;;2603558;54;20027;31
2022/02/21 16:26:07;;;;;;;4.82;1.75;;;6.40;99.90;;;;;;2603380;54;20028;31
2022/02/21 16:28:42;;;;;;;6.63;1.80;;;6.40;99.90;;;;;;2622386;46;20052;31
2022/02/21 16:31:15;;;;;;;5.35;1.88;;;6.30;99.90;;;;;;2603283;54;20022;31
2022/02/21 16:33:53;;;;;;;5.35;1.60;;;6.30;99.90;;;;;;2603681;54;20868;31